createdAt,value
2018-06-11T00:00:18.074Z,65.00
2018-06-11T00:01:22.196Z,65.10
2018-06-11T00:02:26.361Z,65.00
2018-06-11T00:03:30.503Z,65.10
2018-06-11T00:04:34.563Z,65.10
2018-06-11T00:05:38.687Z,65.20
2018-06-11T00:06:42.850Z,65.10
2018-06-11T00:07:46.952Z,65.30
2018-06-11T00:08:51.075Z,65.30
2018-06-11T00:09:55.216Z,65.40
2018-06-11T00:10:59.401Z,66.20
2018-06-11T00:12:03.489Z,65.50
2018-06-11T00:13:07.810Z,65.50
2018-06-11T00:14:11.920Z,65.60
2018-06-11T00:16:19.674Z,65.70
2018-06-11T00:17:23.807Z,65.60
2018-06-11T00:18:27.943Z,65.70
2018-06-11T00:19:32.053Z,65.70
2018-06-11T00:21:39.930Z,65.80
2018-06-11T00:22:44.131Z,65.70
2018-06-11T00:23:48.264Z,66.60
2018-06-11T00:24:52.293Z,66.00
2018-06-11T00:25:56.451Z,65.90
2018-06-11T00:27:00.549Z,65.90
2018-06-11T00:28:04.738Z,66.00
2018-06-11T00:29:08.850Z,66.10
2018-06-11T00:30:13.009Z,66.00
2018-06-11T00:31:17.244Z,66.10
2018-06-11T00:32:21.496Z,66.20
2018-06-11T00:33:25.669Z,66.30
2018-06-11T00:34:29.739Z,67.00
2018-06-11T00:35:33.848Z,66.30
2018-06-11T00:36:37.936Z,66.30
2018-06-11T00:37:42.043Z,66.40
2018-06-11T00:38:46.155Z,66.30
2018-06-11T00:39:50.299Z,66.40
2018-06-11T00:40:54.403Z,66.40
2018-06-11T00:41:58.485Z,66.60
2018-06-11T00:43:02.615Z,66.70
2018-06-11T00:44:06.766Z,66.70
2018-06-11T00:45:10.873Z,66.70
2018-06-11T00:46:14.996Z,66.70
2018-06-11T00:47:19.124Z,66.80
2018-06-11T00:49:26.934Z,66.40
2018-06-11T00:51:34.785Z,66.90
2018-06-11T00:52:38.903Z,67.00
2018-06-11T00:53:43.125Z,67.00
2018-06-11T00:54:47.240Z,67.10
2018-06-11T00:56:02.704Z,67.10
2018-06-11T00:57:06.909Z,67.20
2018-06-11T00:58:11.047Z,67.10
2018-06-11T00:59:15.146Z,67.20
2018-06-11T01:00:19.282Z,67.30
2018-06-11T01:01:23.412Z,67.40
2018-06-11T01:02:27.568Z,67.40
2018-06-11T01:03:31.724Z,67.50
2018-06-11T01:04:35.821Z,67.60
2018-06-11T01:05:39.889Z,67.60
2018-06-11T01:06:45.929Z,67.70
2018-06-11T01:09:07.185Z,67.80
2018-06-11T01:10:17.767Z,67.70
2018-06-11T01:11:27.757Z,67.80
2018-06-11T01:12:31.839Z,67.80
2018-06-11T01:13:35.905Z,68.00
2018-06-11T01:14:40.035Z,67.90
2018-06-11T01:16:47.862Z,68.00
2018-06-11T01:17:51.924Z,68.20
2018-06-11T01:20:00.789Z,68.30
2018-06-11T01:21:04.862Z,68.30
2018-06-11T01:22:08.946Z,68.30
2018-06-11T01:23:13.048Z,68.40
2018-06-11T01:24:17.164Z,68.50
2018-06-11T01:25:21.291Z,68.50
2018-06-11T01:26:25.402Z,68.50
2018-06-11T01:27:29.473Z,68.60
2018-06-11T01:28:33.547Z,68.50
2018-06-11T01:29:37.652Z,68.60
2018-06-11T01:30:41.786Z,68.60
2018-06-11T01:31:45.914Z,68.60
2018-06-11T01:32:50.038Z,68.70
2018-06-11T01:33:54.183Z,68.70
2018-06-11T01:34:58.344Z,68.60
2018-06-11T01:36:02.454Z,68.70
2018-06-11T01:37:06.620Z,69.50
2018-06-11T01:38:10.684Z,68.70
2018-06-11T01:39:14.755Z,68.70
2018-06-11T01:40:18.943Z,68.70
2018-06-11T01:41:23.068Z,68.80
2018-06-11T01:42:27.199Z,68.80
2018-06-11T01:43:31.352Z,68.90
2018-06-11T01:44:35.476Z,68.90
2018-06-11T01:45:39.573Z,68.90
2018-06-11T01:46:43.707Z,68.90
2018-06-11T01:47:47.882Z,68.90
2018-06-11T01:48:51.931Z,68.90
2018-06-11T01:50:59.847Z,69.00
2018-06-11T01:52:03.971Z,69.00
2018-06-11T01:53:08.095Z,69.00
2018-06-11T01:54:12.191Z,68.90
2018-06-11T01:55:16.297Z,69.00
2018-06-11T01:56:20.394Z,69.80
2018-06-11T01:57:24.507Z,69.00
2018-06-11T01:58:28.594Z,69.00
2018-06-11T01:59:32.684Z,69.00
2018-06-11T02:00:36.824Z,69.70
2018-06-11T02:01:41.013Z,69.00
2018-06-11T02:02:45.169Z,69.00
2018-06-11T02:03:49.294Z,69.00
2018-06-11T02:04:53.349Z,69.10
2018-06-11T02:05:57.499Z,69.20
2018-06-11T02:07:01.601Z,69.30
2018-06-11T02:08:05.742Z,69.20
2018-06-11T02:09:09.873Z,69.30
2018-06-11T02:10:13.983Z,69.30
2018-06-11T02:11:18.083Z,69.30
2018-06-11T02:12:22.141Z,69.30
2018-06-11T02:13:26.250Z,70.10
2018-06-11T02:14:30.325Z,69.30
2018-06-11T02:15:34.415Z,69.50
2018-06-11T02:16:38.541Z,69.50
2018-06-11T02:18:46.410Z,69.70
2018-06-11T02:19:50.507Z,69.70
2018-06-11T02:20:54.719Z,70.60
2018-06-11T02:21:58.932Z,69.70
2018-06-11T02:24:06.751Z,69.80
2018-06-11T02:25:10.862Z,69.80
2018-06-11T02:26:15.012Z,69.80
2018-06-11T02:27:19.156Z,69.80
2018-06-11T02:28:23.244Z,69.80
2018-06-11T02:29:27.332Z,70.00
2018-06-11T02:30:31.424Z,70.10
2018-06-11T02:31:35.510Z,70.00
2018-06-11T02:32:39.635Z,70.10
2018-06-11T02:33:43.699Z,70.10
2018-06-11T02:34:47.810Z,70.00
2018-06-11T02:35:51.911Z,70.20
2018-06-11T02:36:56.014Z,70.10
2018-06-11T02:38:00.159Z,70.20
2018-06-11T02:39:06.055Z,70.20
2018-06-11T02:40:10.200Z,70.30
2018-06-11T02:41:14.316Z,71.20
2018-06-11T02:42:18.573Z,70.50
2018-06-11T02:43:22.710Z,70.50
2018-06-11T02:44:26.879Z,70.50
2018-06-11T02:45:31.206Z,70.60
2018-06-11T02:46:35.380Z,70.50
2018-06-11T02:47:39.497Z,70.70
2018-06-11T02:48:43.575Z,70.70
2018-06-11T02:49:47.676Z,71.50
2018-06-11T02:50:51.764Z,70.70
2018-06-11T02:52:59.610Z,70.70
2018-06-11T02:54:03.756Z,70.80
2018-06-11T02:55:07.859Z,70.80
2018-06-11T02:56:11.985Z,70.80
2018-06-11T02:57:16.264Z,70.90
2018-06-11T02:58:20.391Z,70.90
2018-06-11T02:59:24.434Z,70.90
2018-06-11T03:00:28.521Z,70.90
2018-06-11T03:01:39.092Z,71.00
2018-06-11T03:02:43.150Z,70.90
2018-06-11T03:03:47.310Z,70.90
2018-06-11T03:04:51.448Z,71.00
2018-06-11T03:05:55.507Z,71.10
2018-06-11T03:06:59.609Z,71.10
2018-06-11T03:08:03.749Z,71.10
2018-06-11T03:09:07.908Z,71.20
2018-06-11T03:10:11.981Z,71.30
2018-06-11T03:12:19.786Z,71.50
2018-06-11T03:13:23.905Z,71.50
2018-06-11T03:14:28.081Z,71.50
2018-06-11T03:15:32.210Z,71.50
2018-06-11T03:16:42.777Z,71.50
2018-06-11T03:17:46.860Z,71.60
2018-06-11T03:18:51.017Z,71.70
2018-06-11T03:19:55.328Z,72.50
2018-06-11T03:20:59.423Z,71.80
2018-06-11T03:22:03.507Z,71.80
2018-06-11T03:23:07.594Z,71.80
2018-06-11T03:24:11.657Z,71.80
2018-06-11T03:25:15.806Z,71.90
2018-06-11T03:26:19.911Z,72.90
2018-06-11T03:27:24.010Z,72.00
2018-06-11T03:28:28.137Z,72.00
2018-06-11T03:29:32.278Z,71.90
2018-06-11T03:30:36.448Z,72.10
2018-06-11T03:31:40.574Z,72.80
2018-06-11T03:32:44.724Z,72.20
2018-06-11T03:33:48.845Z,72.00
2018-06-11T03:34:52.987Z,72.10
2018-06-11T03:35:57.149Z,72.10
2018-06-11T03:37:01.311Z,72.10
2018-06-11T03:38:05.465Z,72.10
2018-06-11T03:39:09.613Z,72.20
2018-06-11T03:40:13.720Z,72.90
2018-06-11T03:41:17.877Z,72.40
2018-06-11T03:42:22.052Z,72.30
2018-06-11T03:43:26.150Z,72.20
2018-06-11T03:44:30.289Z,72.20
2018-06-11T03:45:34.336Z,72.20
2018-06-11T03:46:38.433Z,72.30
2018-06-11T03:47:42.552Z,72.30
2018-06-11T03:48:46.736Z,72.30
2018-06-11T03:49:50.915Z,72.40
2018-06-11T03:50:55.082Z,72.40
2018-06-11T03:51:59.229Z,72.40
2018-06-11T03:53:03.370Z,72.50
2018-06-11T03:54:07.458Z,72.50
2018-06-11T03:55:11.605Z,72.60
2018-06-11T03:56:15.767Z,72.40
2018-06-11T03:57:19.903Z,73.20
2018-06-11T03:58:24.031Z,72.90
2018-06-11T03:59:28.158Z,72.40
2018-06-11T04:00:32.273Z,72.50
2018-06-11T04:01:36.371Z,72.50
2018-06-11T04:02:40.435Z,72.50
2018-06-11T04:03:44.515Z,72.50
2018-06-11T04:04:48.616Z,72.50
2018-06-11T04:05:52.784Z,72.60
2018-06-11T04:06:56.949Z,72.60
2018-06-11T04:08:01.068Z,72.80
2018-06-11T04:09:07.287Z,72.60
2018-06-11T04:10:11.385Z,72.70
2018-06-11T04:11:15.460Z,72.70
2018-06-11T04:12:19.554Z,72.60
2018-06-11T04:13:23.747Z,72.60
2018-06-11T04:14:27.843Z,72.70
2018-06-11T04:15:31.997Z,72.80
2018-06-11T04:16:36.156Z,72.80
2018-06-11T04:17:40.219Z,72.70
2018-06-11T04:18:44.348Z,72.70
2018-06-11T04:19:48.455Z,72.70
2018-06-11T04:20:52.615Z,72.60
2018-06-11T04:21:56.690Z,72.60
2018-06-11T04:23:00.829Z,72.60
2018-06-11T04:24:04.909Z,72.70
2018-06-11T04:25:09.014Z,72.70
2018-06-11T04:26:13.131Z,72.60
2018-06-11T04:27:17.228Z,72.60
2018-06-11T04:28:21.362Z,72.50
2018-06-11T04:29:25.429Z,72.80
2018-06-11T04:30:29.485Z,72.50
2018-06-11T04:31:33.591Z,72.50
2018-06-11T04:32:37.695Z,72.40
2018-06-11T04:33:41.786Z,72.40
2018-06-11T04:34:45.822Z,72.40
2018-06-11T04:35:49.943Z,72.40
2018-06-11T04:37:57.858Z,72.40
2018-06-11T04:39:01.912Z,72.40
2018-06-11T04:40:06.015Z,72.40
2018-06-11T04:41:12.432Z,72.30
2018-06-11T04:42:16.532Z,72.30
2018-06-11T04:43:20.690Z,72.40
2018-06-11T04:44:24.815Z,72.40
2018-06-11T04:45:28.895Z,72.30
2018-06-11T04:46:32.971Z,72.30
2018-06-11T04:47:37.006Z,72.20
2018-06-11T04:48:41.169Z,72.20
2018-06-11T04:49:45.273Z,72.10
2018-06-11T04:50:49.374Z,72.20
2018-06-11T04:51:53.602Z,72.20
2018-06-11T04:52:57.787Z,72.10
2018-06-11T04:54:01.961Z,72.10
2018-06-11T04:55:06.086Z,72.10
2018-06-11T04:56:10.203Z,72.00
2018-06-11T04:57:14.452Z,72.00
2018-06-11T04:58:18.639Z,72.00
2018-06-11T04:59:22.766Z,71.90
2018-06-11T05:01:30.511Z,71.90
2018-06-11T05:02:34.608Z,71.90
2018-06-11T05:03:38.785Z,71.90
2018-06-11T05:04:42.912Z,71.80
2018-06-11T05:05:47.012Z,71.70
2018-06-11T05:06:51.151Z,71.60
2018-06-11T05:07:55.225Z,71.40
2018-06-11T05:08:59.360Z,71.40
2018-06-11T05:10:03.528Z,71.40
2018-06-11T05:11:07.619Z,71.30
2018-06-11T05:12:11.681Z,71.20
2018-06-11T05:13:15.859Z,71.90
2018-06-11T05:14:19.996Z,71.10
2018-06-11T05:15:24.150Z,71.10
2018-06-11T05:16:28.306Z,71.10
2018-06-11T05:17:32.380Z,71.20
2018-06-11T05:18:36.476Z,71.20
2018-06-11T05:19:40.610Z,71.20
2018-06-11T05:20:44.723Z,71.20
2018-06-11T05:21:48.829Z,71.10
2018-06-11T05:22:52.990Z,71.20
2018-06-11T05:23:57.076Z,71.20
2018-06-11T05:25:01.167Z,71.20
2018-06-11T05:26:05.339Z,71.20
2018-06-11T05:27:09.491Z,71.20
2018-06-11T05:28:13.599Z,71.10
2018-06-11T05:29:17.724Z,71.30
2018-06-11T05:30:21.895Z,71.20
2018-06-11T05:31:26.005Z,71.20
2018-06-11T05:32:30.170Z,72.00
2018-06-11T05:33:34.285Z,71.10
2018-06-11T05:34:38.413Z,71.10
2018-06-11T05:35:42.531Z,71.00
2018-06-11T05:36:46.650Z,71.10
2018-06-11T05:37:50.740Z,71.00
2018-06-11T05:38:54.843Z,70.90
2018-06-11T05:39:58.963Z,70.90
2018-06-11T05:41:03.081Z,70.80
2018-06-11T05:42:07.216Z,70.70
2018-06-11T05:44:15.038Z,71.10
2018-06-11T05:45:19.110Z,70.60
2018-06-11T05:46:23.363Z,70.60
2018-06-11T05:47:27.542Z,70.70
2018-06-11T05:49:35.337Z,70.70
2018-06-11T05:50:39.495Z,70.60
2018-06-11T05:51:43.672Z,70.70
2018-06-11T05:52:47.791Z,70.60
2018-06-11T05:53:51.893Z,70.60
2018-06-11T05:54:56.018Z,70.50
2018-06-11T05:56:01.334Z,70.40
2018-06-11T05:57:05.478Z,70.40
2018-06-11T05:58:09.863Z,70.20
2018-06-11T05:59:13.984Z,70.20
2018-06-11T06:01:21.825Z,69.50
2018-06-11T06:02:25.944Z,70.20
2018-06-11T06:03:30.012Z,70.20
2018-06-11T06:04:34.175Z,70.20
2018-06-11T06:05:38.351Z,70.10
2018-06-11T06:06:42.502Z,70.10
2018-06-11T06:08:50.268Z,70.00
2018-06-11T06:09:54.447Z,69.90
2018-06-11T06:10:58.601Z,69.70
2018-06-11T06:12:02.839Z,69.70
2018-06-11T06:13:07.218Z,69.70
2018-06-11T06:14:11.405Z,69.60
2018-06-11T06:15:15.539Z,69.60
2018-06-11T06:16:19.726Z,69.60
2018-06-11T06:17:23.756Z,68.80
2018-06-11T06:18:27.885Z,69.50
2018-06-11T06:19:32.019Z,69.40
2018-06-11T06:20:36.059Z,69.40
2018-06-11T06:21:40.195Z,69.30
2018-06-11T06:22:44.292Z,69.30
2018-06-11T06:23:48.469Z,69.20
2018-06-11T06:24:52.761Z,69.10
2018-06-11T06:25:56.856Z,69.10
2018-06-11T06:27:01.013Z,68.90
2018-06-11T06:28:05.095Z,68.90
2018-06-11T06:29:09.214Z,68.90
2018-06-11T06:30:13.309Z,68.90
2018-06-11T06:31:17.632Z,68.80
2018-06-11T06:32:21.912Z,68.70
2018-06-11T06:35:33.425Z,68.50
2018-06-11T06:36:37.603Z,68.30
2018-06-11T06:38:45.514Z,68.40
2018-06-11T06:39:49.683Z,68.00
2018-06-11T06:40:53.847Z,68.00
2018-06-11T06:41:57.950Z,67.90
2018-06-11T06:43:02.089Z,67.80
2018-06-11T06:44:06.187Z,67.90
2018-06-11T06:45:10.278Z,67.60
2018-06-11T06:46:14.372Z,67.20
2018-06-11T06:47:18.554Z,66.90
2018-06-11T06:48:22.561Z,67.00
2018-06-11T06:49:26.755Z,66.90
2018-06-11T06:50:30.856Z,67.00
2018-06-11T06:51:35.021Z,67.20
2018-06-11T06:52:39.182Z,67.20
2018-06-11T06:53:43.467Z,67.20
2018-06-11T06:54:47.551Z,67.20
2018-06-11T06:55:51.742Z,67.40
2018-06-11T06:56:55.815Z,67.40
2018-06-11T06:57:59.901Z,67.40
2018-06-11T06:59:04.123Z,67.40
2018-06-11T07:00:08.244Z,67.40
2018-06-11T07:01:12.395Z,67.50
2018-06-11T07:02:16.530Z,68.20
2018-06-11T07:03:20.637Z,67.40
2018-06-11T07:04:24.844Z,67.30
2018-06-11T07:05:28.944Z,67.40
2018-06-11T07:06:33.321Z,67.30
2018-06-11T07:07:37.407Z,67.40
2018-06-11T07:08:41.596Z,67.40
2018-06-11T07:09:45.693Z,67.40
2018-06-11T07:10:49.930Z,67.30
2018-06-11T07:11:54.020Z,67.30
2018-06-11T07:12:58.152Z,67.30
2018-06-11T07:14:02.287Z,67.20
2018-06-11T07:15:06.465Z,67.20
2018-06-11T07:16:10.597Z,67.20
2018-06-11T07:17:14.748Z,67.10
2018-06-11T07:18:18.894Z,67.00
2018-06-11T07:19:23.015Z,66.90
2018-06-11T07:20:27.098Z,67.60
2018-06-11T07:21:31.185Z,66.60
2018-06-11T07:22:35.357Z,66.40
2018-06-11T07:23:39.563Z,66.40
2018-06-11T07:24:43.669Z,66.20
2018-06-11T07:25:47.811Z,66.10
2018-06-11T07:26:51.997Z,65.70
2018-06-11T07:27:56.244Z,65.80
2018-06-11T07:29:00.290Z,65.70
2018-06-11T07:30:04.873Z,65.70
2018-06-11T07:31:08.965Z,65.60
2018-06-11T07:32:13.072Z,65.50
2018-06-11T07:33:17.269Z,65.60
2018-06-11T07:34:21.393Z,65.70
2018-06-11T07:35:25.516Z,65.60
2018-06-11T07:36:29.663Z,65.70
2018-06-11T07:37:33.809Z,65.70
2018-06-11T07:38:37.959Z,65.80
2018-06-11T07:39:42.094Z,65.80
2018-06-11T07:40:46.267Z,65.70
2018-06-11T07:41:50.489Z,65.70
2018-06-11T07:42:54.657Z,65.80
2018-06-11T07:43:58.841Z,65.70
2018-06-11T07:46:06.755Z,65.60
2018-06-11T07:47:10.910Z,66.20
2018-06-11T07:48:15.036Z,65.20
2018-06-11T07:49:19.106Z,64.70
2018-06-11T07:50:24.157Z,64.60
2018-06-11T07:51:28.259Z,64.70
2018-06-11T07:52:32.484Z,64.40
2018-06-11T07:53:36.611Z,64.20
2018-06-11T07:54:40.741Z,64.20
2018-06-11T07:55:44.851Z,64.20
2018-06-11T07:56:49.165Z,64.10
2018-06-11T07:57:53.452Z,64.10
2018-06-11T07:58:57.588Z,63.90
2018-06-11T08:00:01.764Z,63.80
2018-06-11T08:01:05.869Z,63.40
2018-06-11T08:02:10.054Z,63.10
2018-06-11T08:03:14.343Z,63.10
2018-06-11T08:04:18.452Z,62.70
2018-06-11T08:05:23.544Z,62.60
2018-06-11T08:06:27.669Z,62.40
2018-06-11T08:08:35.601Z,62.40
2018-06-11T08:09:39.744Z,62.30
2018-06-11T08:10:43.859Z,62.20
2018-06-11T08:12:51.652Z,61.60
2018-06-11T08:13:55.831Z,61.70
2018-06-11T08:14:59.939Z,61.70
2018-06-11T08:16:04.050Z,61.70
2018-06-11T08:17:08.165Z,61.50
2018-06-11T08:18:12.280Z,61.30
2018-06-11T08:19:16.410Z,60.90
2018-06-11T08:20:20.537Z,60.80
2018-06-11T08:21:24.617Z,60.70
2018-06-11T08:22:28.748Z,60.50
2018-06-11T08:23:32.928Z,60.40
2018-06-11T08:24:37.094Z,60.50
2018-06-11T08:25:41.271Z,60.20
2018-06-11T08:26:45.446Z,60.20
2018-06-11T08:27:49.585Z,59.90
2018-06-11T08:28:53.659Z,59.90
2018-06-11T08:29:57.774Z,59.70
2018-06-11T08:31:01.944Z,59.60
2018-06-11T08:32:06.158Z,59.50
2018-06-11T08:33:10.324Z,59.50
2018-06-11T08:34:14.501Z,59.30
2018-06-11T08:35:18.618Z,59.10
2018-06-11T08:36:22.719Z,59.20
2018-06-11T08:37:26.856Z,59.00
2018-06-11T08:38:30.928Z,58.70
2018-06-11T08:39:35.028Z,58.50
2018-06-11T08:40:39.208Z,58.20
2018-06-11T08:41:43.351Z,58.00
2018-06-11T08:42:47.595Z,57.80
2018-06-11T08:43:51.698Z,57.70
2018-06-11T08:44:55.831Z,57.20
2018-06-11T08:45:59.970Z,57.10
2018-06-11T08:47:04.139Z,57.00
2018-06-11T08:48:08.428Z,57.00
2018-06-11T08:49:12.803Z,57.00
2018-06-11T08:50:16.960Z,57.00
2018-06-11T08:51:21.199Z,56.80
2018-06-11T08:52:25.231Z,56.90
2018-06-11T08:53:29.404Z,56.80
2018-06-11T08:54:33.475Z,56.40
2018-06-11T08:55:37.667Z,56.50
2018-06-11T08:56:41.814Z,56.00
2018-06-11T08:57:45.941Z,56.00
2018-06-11T08:58:50.139Z,55.80
2018-06-11T08:59:54.268Z,55.80
2018-06-11T09:02:02.165Z,55.10
2018-06-11T09:03:06.222Z,55.00
2018-06-11T09:04:10.341Z,54.90
2018-06-11T09:05:14.526Z,54.70
2018-06-11T09:06:18.634Z,54.60
2018-06-11T09:07:22.780Z,54.40
2018-06-11T09:08:26.878Z,54.20
2018-06-11T09:09:30.927Z,54.10
2018-06-11T09:10:35.014Z,54.70
2018-06-11T09:11:39.145Z,54.00
2018-06-11T09:12:43.258Z,53.80
2018-06-11T09:13:47.396Z,53.60
2018-06-11T09:14:51.450Z,53.60
2018-06-11T09:15:55.531Z,53.50
2018-06-11T09:16:59.632Z,53.50
2018-06-11T09:18:03.753Z,53.50
2018-06-11T09:19:07.853Z,53.50
2018-06-11T09:20:12.001Z,53.50
2018-06-11T09:21:16.130Z,53.30
2018-06-11T09:22:20.317Z,53.10
2018-06-11T09:23:24.478Z,52.90
2018-06-11T09:24:28.561Z,52.90
2018-06-11T09:25:32.720Z,52.70
2018-06-11T09:26:36.820Z,52.60
2018-06-11T09:27:40.902Z,52.60
2018-06-11T09:28:45.081Z,53.10
2018-06-11T09:29:49.222Z,52.60
2018-06-11T09:30:53.394Z,52.50
2018-06-11T09:31:57.448Z,52.30
2018-06-11T09:33:01.509Z,52.20
2018-06-11T09:34:05.571Z,52.30
2018-06-11T09:36:13.495Z,51.70
2018-06-11T09:37:17.695Z,51.70
2018-06-11T09:39:25.608Z,51.30
2018-06-11T09:40:29.769Z,51.00
2018-06-11T09:41:33.905Z,51.00
2018-06-11T09:42:38.101Z,51.00
2018-06-11T09:43:42.257Z,50.80
2018-06-11T09:44:46.387Z,50.90
2018-06-11T09:47:58.204Z,50.00
2018-06-11T09:49:02.383Z,49.70
2018-06-11T09:50:06.564Z,49.60
2018-06-11T09:51:10.656Z,49.60
2018-06-11T09:52:15.142Z,49.60
2018-06-11T09:53:19.726Z,49.60
2018-06-11T09:54:24.049Z,49.50
2018-06-11T09:55:28.648Z,49.20
2018-06-11T09:56:33.263Z,49.00
2018-06-11T09:58:41.348Z,49.30
2018-06-11T09:59:45.708Z,48.30
2018-06-11T10:00:50.088Z,48.40
2018-06-11T10:01:54.248Z,48.10
2018-06-11T10:02:58.368Z,47.70
2018-06-11T10:04:02.644Z,47.40
2018-06-11T10:05:06.915Z,47.20
2018-06-11T10:06:11.100Z,47.00
2018-06-11T10:07:15.891Z,46.80
2018-06-11T10:08:20.126Z,47.00
2018-06-11T10:09:24.339Z,46.80
2018-06-11T10:10:28.503Z,47.00
2018-06-11T10:11:32.693Z,47.70
2018-06-11T10:12:36.953Z,46.70
2018-06-11T10:13:41.730Z,46.60
2018-06-11T10:14:45.944Z,46.20
2018-06-11T10:15:50.084Z,46.00
2018-06-11T10:16:54.346Z,45.90
2018-06-11T10:17:58.580Z,45.70
2018-06-11T10:19:02.699Z,45.70
2018-06-11T10:20:08.234Z,45.60
2018-06-11T10:21:12.472Z,45.50
2018-06-11T10:22:16.941Z,45.60
2018-06-11T10:23:21.105Z,45.50
2018-06-11T10:24:25.273Z,45.50
2018-06-11T10:26:33.298Z,45.10
2018-06-11T10:27:37.375Z,45.10
2018-06-11T10:28:41.548Z,45.00
2018-06-11T10:29:45.667Z,45.10
2018-06-11T10:30:49.761Z,44.90
2018-06-11T10:31:54.036Z,44.60
2018-06-11T10:32:58.425Z,44.40
2018-06-11T10:37:13.683Z,44.10
2018-06-11T10:38:17.799Z,44.00
2018-06-11T10:39:21.931Z,44.00
2018-06-11T10:40:26.108Z,44.00
2018-06-11T10:42:33.954Z,43.90
2018-06-11T10:43:38.021Z,43.50
2018-06-11T10:44:42.169Z,43.30
2018-06-11T10:45:46.322Z,43.10
2018-06-11T10:46:50.643Z,42.90
2018-06-11T10:47:54.781Z,42.60
2018-06-11T10:48:58.909Z,42.70
2018-06-11T10:51:06.755Z,42.20
2018-06-11T10:52:10.831Z,41.20
2018-06-11T10:53:14.944Z,41.50
2018-06-11T10:54:19.074Z,41.90
2018-06-11T10:55:23.377Z,41.00
2018-06-11T10:56:27.512Z,40.80
2018-06-11T10:57:31.605Z,40.70
2018-06-11T10:58:35.710Z,40.70
2018-06-11T10:59:39.869Z,40.80
2018-06-11T11:00:43.962Z,40.50
2018-06-11T11:01:48.147Z,40.30
2018-06-11T11:02:52.275Z,39.70
2018-06-11T11:05:00.105Z,39.60
2018-06-11T11:06:10.656Z,39.40
2018-06-11T11:07:14.906Z,39.10
2018-06-11T11:08:19.057Z,38.90
2018-06-11T11:09:23.324Z,38.60
2018-06-11T11:10:27.514Z,38.40
2018-06-11T11:11:31.698Z,38.20
2018-06-11T11:12:35.850Z,38.00
2018-06-11T11:13:39.926Z,37.90
2018-06-11T11:14:44.071Z,37.60
2018-06-11T11:15:48.202Z,37.70
2018-06-11T11:16:52.348Z,37.00
2018-06-11T11:17:56.526Z,36.90
2018-06-11T11:19:00.693Z,36.80
2018-06-11T11:20:04.781Z,36.60
2018-06-11T11:21:09.045Z,36.30
2018-06-11T11:22:13.201Z,36.20
2018-06-11T11:24:21.007Z,35.90
2018-06-11T11:26:28.830Z,35.70
2018-06-11T11:27:33.045Z,35.70
2018-06-11T11:28:37.241Z,35.30
2018-06-11T11:29:41.479Z,35.20
2018-06-11T11:30:45.714Z,35.00
2018-06-11T11:31:49.989Z,34.90
2018-06-11T11:32:55.160Z,34.80
2018-06-11T11:33:59.375Z,34.80
2018-06-11T11:35:03.507Z,34.70
2018-06-11T11:36:07.735Z,34.50
2018-06-11T11:37:11.853Z,34.60
2018-06-11T11:38:15.965Z,34.40
2018-06-11T11:39:20.062Z,34.40
2018-06-11T11:40:24.177Z,34.90
2018-06-11T11:41:28.352Z,33.70
2018-06-11T11:42:32.557Z,34.20
2018-06-11T11:43:36.593Z,34.00
2018-06-11T11:44:40.769Z,33.80
2018-06-11T11:45:44.817Z,33.50
2018-06-11T11:46:48.939Z,33.30
2018-06-11T11:47:53.208Z,33.30
2018-06-11T11:48:57.345Z,33.10
2018-06-11T11:50:01.498Z,33.00
2018-06-11T11:51:05.659Z,33.10
2018-06-11T11:53:13.479Z,32.70
2018-06-11T11:54:17.721Z,32.50
2018-06-11T11:55:22.034Z,32.30
2018-06-11T11:56:26.090Z,32.30
2018-06-11T11:57:30.290Z,32.10
2018-06-11T11:58:34.474Z,32.10
2018-06-11T11:59:38.578Z,31.90
2018-06-11T12:00:43.270Z,31.50
2018-06-11T12:01:47.412Z,31.10
2018-06-11T12:02:51.537Z,31.00
2018-06-11T12:03:55.699Z,30.80
2018-06-11T12:06:03.664Z,30.70
2018-06-11T12:08:11.579Z,30.40
2018-06-11T12:09:15.707Z,30.20
2018-06-11T12:10:19.811Z,30.30
2018-06-11T12:11:24.653Z,30.30
2018-06-11T12:12:28.776Z,30.30
2018-06-11T12:13:39.245Z,30.10
2018-06-11T12:14:43.407Z,30.00
2018-06-11T12:15:47.467Z,30.00
2018-06-11T12:17:55.499Z,30.00
2018-06-11T12:18:59.846Z,30.00
2018-06-11T12:20:04.066Z,30.10
2018-06-11T12:21:08.161Z,30.10
2018-06-11T12:22:12.404Z,30.00
2018-06-11T12:23:16.666Z,30.00
2018-06-11T12:24:20.879Z,30.00
2018-06-11T12:25:25.194Z,29.90
2018-06-11T12:26:29.278Z,29.80
2018-06-11T12:27:33.355Z,29.60
2018-06-11T12:28:37.593Z,29.60
2018-06-11T12:29:41.724Z,29.50
2018-06-11T12:30:45.827Z,29.40
2018-06-11T12:31:50.000Z,29.40
2018-06-11T12:32:54.141Z,29.40
2018-06-11T12:33:58.311Z,29.40
2018-06-11T12:35:02.463Z,29.40
2018-06-11T12:36:06.582Z,29.50
2018-06-11T12:37:10.650Z,29.50
2018-06-11T12:40:22.228Z,29.40
2018-06-11T12:41:26.378Z,29.20
2018-06-11T12:42:30.449Z,29.20
2018-06-11T12:43:34.539Z,28.90
2018-06-11T12:44:38.652Z,28.80
2018-06-11T12:45:42.733Z,28.60
2018-06-11T12:46:46.876Z,28.50
2018-06-11T12:47:50.968Z,28.40
2018-06-11T12:49:58.849Z,28.90
2018-06-11T12:51:02.936Z,28.30
2018-06-11T12:52:07.072Z,28.30
2018-06-11T12:53:11.250Z,28.40
2018-06-11T12:54:15.419Z,28.40
2018-06-11T12:55:19.482Z,29.00
2018-06-11T12:56:24.503Z,28.40
2018-06-11T12:57:28.590Z,28.40
2018-06-11T12:58:32.717Z,28.40
2018-06-11T12:59:36.904Z,28.60
2018-06-11T13:00:41.060Z,28.70
2018-06-11T13:01:45.442Z,28.80
2018-06-11T13:03:53.494Z,29.00
2018-06-11T13:04:57.989Z,29.10
2018-06-11T13:06:02.594Z,28.90
2018-06-11T13:07:06.716Z,28.90
2018-06-11T13:08:11.419Z,28.80
2018-06-11T13:09:15.525Z,28.80
2018-06-11T13:10:19.607Z,28.70
2018-06-11T13:11:23.726Z,28.40
2018-06-11T13:12:27.823Z,28.30
2018-06-11T13:13:32.010Z,28.30
2018-06-11T13:15:41.309Z,28.40
2018-06-11T13:16:45.419Z,28.30
2018-06-11T13:17:49.595Z,28.20
2018-06-11T13:18:53.740Z,28.80
2018-06-11T13:19:57.907Z,28.30
2018-06-11T13:21:02.041Z,28.40
2018-06-11T13:22:12.830Z,28.50
2018-06-11T13:24:20.781Z,28.80
2018-06-11T13:25:24.874Z,28.60
2018-06-11T13:26:28.961Z,28.70
2018-06-11T13:27:33.089Z,28.70
2018-06-11T13:28:37.257Z,28.90
2018-06-11T13:29:41.413Z,29.00
2018-06-11T13:30:45.588Z,29.10
2018-06-11T13:31:49.732Z,29.20
2018-06-11T13:32:53.864Z,29.10
2018-06-11T13:35:01.599Z,29.50
2018-06-11T13:36:05.680Z,29.70
2018-06-11T13:37:09.849Z,29.80
2018-06-11T13:38:14.022Z,29.90
2018-06-11T13:39:18.150Z,30.00
2018-06-11T13:40:22.230Z,30.00
2018-06-11T13:41:26.357Z,30.40
2018-06-11T13:42:30.530Z,30.30
2018-06-11T13:43:34.822Z,30.50
2018-06-11T13:44:39.405Z,30.70
2018-06-11T13:45:43.518Z,30.80
2018-06-11T13:46:48.513Z,31.00
2018-06-11T13:48:56.674Z,32.00
2018-06-11T13:50:01.166Z,31.30
2018-06-11T13:51:05.273Z,31.40
2018-06-11T13:52:09.417Z,31.60
2018-06-11T13:53:13.944Z,31.70
2018-06-11T13:54:18.114Z,31.70
2018-06-11T13:55:22.189Z,32.00
2018-06-11T13:56:27.029Z,32.50
2018-06-11T13:57:31.112Z,32.60
2018-06-11T13:58:35.253Z,33.30
2018-06-11T13:59:39.371Z,33.90
2018-06-11T14:00:43.505Z,34.20
2018-06-11T14:01:47.622Z,34.90
2018-06-11T14:02:51.872Z,35.00
2018-06-11T14:03:55.940Z,35.00
2018-06-11T14:05:00.102Z,35.70
2018-06-11T14:06:04.243Z,35.90
2018-06-11T14:07:08.628Z,36.20
2018-06-11T14:08:12.894Z,36.10
2018-06-11T14:09:17.007Z,36.40
2018-06-11T14:10:21.192Z,36.80
2018-06-11T14:11:25.378Z,37.00
2018-06-11T14:12:29.428Z,37.40
2018-06-11T14:13:33.524Z,37.50
2018-06-11T14:14:37.846Z,37.60
2018-06-11T14:15:49.263Z,38.00
2018-06-11T14:16:53.429Z,38.10
2018-06-11T14:17:57.787Z,38.20
2018-06-11T14:19:02.283Z,38.50
2018-06-11T14:20:06.389Z,38.70
2018-06-11T14:21:10.578Z,38.90
2018-06-11T14:22:14.760Z,39.10
2018-06-11T14:23:18.901Z,39.30
2018-06-11T14:24:23.360Z,39.70
2018-06-11T14:25:28.381Z,39.40
2018-06-11T14:26:32.578Z,39.50
2018-06-11T14:27:36.742Z,39.60
2018-06-11T14:28:41.599Z,39.60
2018-06-11T14:29:45.719Z,39.60
2018-06-11T14:30:49.885Z,39.70
2018-06-11T14:32:57.877Z,40.70
2018-06-11T14:34:02.285Z,40.10
2018-06-11T14:35:06.419Z,40.00
2018-06-11T14:36:10.526Z,40.10
2018-06-11T14:37:15.394Z,40.20
2018-06-11T14:38:19.489Z,40.40
2018-06-11T14:39:24.132Z,40.40
2018-06-11T14:41:31.956Z,40.00
2018-06-11T14:42:36.096Z,40.00
2018-06-11T14:43:40.607Z,40.00